Time;durP1;ratioP1;P1;durP2;ratioP2;P2;SDS_P1;SDS_P2;PMS_P1;PMS_P2;Temp;Humidity;BMP_temperature;BMP_pressure;BME280_temperature;BME280_humidity;BME280_pressure;Samples;Min_cycle;Max_cycle;Signal;HPM_P1;HPM_P2
2024/03/02 00:00:58;;;;;;;29.60;15.30;;;;;;;6.49;77.45;98715.85;105298;1256;109147;-77
2024/03/02 00:03:44;;;;;;;26.30;14.10;;;;;;;6.51;77.47;98715.40;105351;1256;97949;-79
2024/03/02 00:06:12;;;;;;;32.50;15.20;;;;;;;6.50;77.58;98714.55;105314;1265;108187;-77
2024/03/02 00:08:40;;;;;;;28.10;14.90;;;;;;;6.52;77.70;98714.84;105160;1257;96605;-77
2024/03/02 00:11:08;;;;;;;29.60;15.40;;;;;;;6.52;77.50;98712.88;105445;1256;96597;-77
2024/03/02 00:13:37;;;;;;;27.60;14.20;;;;;;;6.52;77.49;98713.04;105198;1257;108935;-77
2024/03/02 00:16:05;;;;;;;31.60;14.90;;;;;;;6.52;77.40;98717.45;105180;1257;96846;-78
2024/03/02 00:18:35;;;;;;;29.70;14.90;;;;;;;6.52;77.48;98714.27;105359;1258;107709;-77
2024/03/02 00:21:09;;;;;;;32.00;15.80;;;;;;;6.53;77.39;98715.98;105479;1258;96984;-76
2024/03/02 00:23:38;;;;;;;28.30;15.00;;;;;;;6.53;77.68;98717.02;105358;1254;96515;-77
2024/03/02 00:26:06;;;;;;;25.90;14.70;;;;;;;6.54;77.52;98715.89;105500;1256;109374;-77
2024/03/02 00:28:36;;;;;;;30.30;14.50;;;;;;;6.55;77.59;98717.05;105364;1258;96606;-77
2024/03/02 00:31:12;;;;;;;30.30;16.70;;;;;;;6.56;77.60;98720.90;105281;1256;107645;-77
2024/03/02 00:33:45;;;;;;;27.30;14.70;;;;;;;6.56;77.46;98717.89;105328;1258;97940;-77
2024/03/02 00:36:15;;;;;;;29.10;15.30;;;;;;;6.58;77.79;98715.70;105385;1256;96677;-78
2024/03/02 00:38:49;;;;;;;29.70;15.40;;;;;;;6.58;77.57;98716.54;105703;1258;109979;-77
2024/03/02 00:41:31;;;;;;;27.60;14.50;;;;;;;6.58;77.57;98708.61;105504;1265;96629;-78
2024/03/02 00:44:08;;;;;;;32.30;15.50;;;;;;;6.58;77.59;98715.33;105417;1260;107674;-77
2024/03/02 00:46:37;;;;;;;26.00;14.20;;;;;;;6.57;77.61;98713.98;105403;1256;96671;-76
2024/03/02 00:49:19;;;;;;;25.90;13.60;;;;;;;6.56;77.66;98712.79;105443;1258;96680;-78
2024/03/02 00:51:49;;;;;;;29.10;15.60;;;;;;;6.54;77.47;98705.50;105403;1256;109939;-76
2024/03/02 00:54:26;;;;;;;27.60;15.50;;;;;;;6.54;77.69;98702.36;105477;1259;96534;-78
2024/03/02 00:56:55;;;;;;;28.90;15.00;;;;;;;6.53;77.73;98696.43;105475;1256;106706;-78
2024/03/02 00:59:25;;;;;;;30.60;14.10;;;;;;;6.50;77.63;98693.44;105437;1270;96642;-78
2024/03/02 01:01:53;;;;;;;28.90;15.20;;;;;;;6.48;77.34;98692.33;105401;1258;96518;-77
2024/03/02 01:04:21;;;;;;;29.30;16.40;;;;;;;6.48;77.60;98692.00;105520;1257;110246;-77
2024/03/02 01:06:50;;;;;;;29.00;16.00;;;;;;;6.48;77.87;98692.86;105366;1257;96468;-77
2024/03/02 01:09:18;;;;;;;26.90;14.20;;;;;;;6.49;77.72;98694.42;105012;1256;107653;-77
2024/03/02 01:11:46;;;;;;;27.80;14.50;;;;;;;6.49;78.00;98691.77;105328;1260;96618;-77
2024/03/02 01:14:14;;;;;;;29.40;14.60;;;;;;;6.49;77.93;98690.14;105209;1259;97520;-77
2024/03/02 01:16:42;;;;;;;31.20;15.20;;;;;;;6.50;77.97;98688.85;105417;1257;109985;-77
2024/03/02 01:19:10;;;;;;;31.20;14.50;;;;;;;6.51;77.89;98685.14;105448;1257;97534;-77
2024/03/02 01:21:38;;;;;;;29.60;15.70;;;;;;;6.50;77.93;98681.79;105447;1258;107684;-78
2024/03/02 01:24:06;;;;;;;28.90;15.60;;;;;;;6.51;77.75;98683.52;105150;1266;96714;-78
2024/03/02 01:26:33;;;;;;;29.30;15.10;;;;;;;6.51;77.95;98671.86;103898;1258;2482802;-77
2024/03/02 01:29:01;;;;;;;24.90;13.00;;;;;;;6.51;77.92;98670.97;105419;1257;109759;-78
2024/03/02 01:31:29;;;;;;;31.60;15.90;;;;;;;6.51;77.70;98678.77;105377;1258;97518;-77
2024/03/02 01:33:57;;;;;;;29.10;15.90;;;;;;;6.51;77.67;98673.11;105393;1257;106697;-78
2024/03/02 01:36:25;;;;;;;33.80;15.60;;;;;;;6.53;77.85;98666.30;105508;1258;96632;-78
2024/03/02 01:38:53;;;;;;;33.10;16.00;;;;;;;6.51;77.70;98665.69;105606;1258;98006;-80
2024/03/02 01:41:21;;;;;;;32.50;15.70;;;;;;;6.50;77.70;98670.37;105276;1258;109877;-78
2024/03/02 01:43:49;;;;;;;34.40;17.10;;;;;;;6.50;77.95;98660.48;105105;1257;96615;-77
2024/03/02 01:46:17;;;;;;;29.10;16.20;;;;;;;6.50;77.84;98662.08;105417;1258;107644;-78
2024/03/02 01:48:44;;;;;;;31.30;15.20;;;;;;;6.50;77.95;98661.38;105241;1262;96596;-77
2024/03/02 01:51:12;;;;;;;31.00;16.20;;;;;;;6.51;78.06;98652.31;105638;1268;96632;-78
2024/03/02 01:53:40;;;;;;;31.70;16.00;;;;;;;6.51;77.87;98647.91;105301;1260;109656;-78
2024/03/02 01:56:08;;;;;;;28.10;15.10;;;;;;;6.51;78.03;98649.33;105419;1268;96664;-78
2024/03/02 01:58:36;;;;;;;29.70;15.90;;;;;;;6.50;78.08;98655.73;108105;1254;107733;-77
2024/03/02 02:01:04;;;;;;;33.30;15.80;;;;;;;6.50;77.91;98653.95;105426;1273;96615;-77
2024/03/02 02:03:32;;;;;;;34.10;16.30;;;;;;;6.51;78.09;98656.73;105321;1254;96595;-78
2024/03/02 02:06:00;;;;;;;32.80;16.00;;;;;;;6.52;77.94;98656.88;105281;1256;109961;-78
2024/03/02 02:08:28;;;;;;;29.20;14.90;;;;;;;6.52;77.97;98654.72;105521;1258;96582;-76
2024/03/02 02:10:56;;;;;;;31.80;15.70;;;;;;;6.53;78.19;98651.33;105632;1256;107654;-77
2024/03/02 02:13:24;;;;;;;29.10;15.00;;;;;;;6.53;77.98;98654.49;108226;1256;94234;-77
2024/03/02 02:15:52;;;;;;;30.10;15.60;;;;;;;6.53;78.18;98652.05;105338;1259;96510;-78
2024/03/02 02:18:21;;;;;;;28.70;15.60;;;;;;;6.55;78.14;98655.05;105270;1256;109628;-77
2024/03/02 02:20:49;;;;;;;31.70;15.30;;;;;;;6.56;77.98;98651.52;105322;1256;96578;-77
2024/03/02 02:23:18;;;;;;;29.00;15.10;;;;;;;6.55;78.08;98644.83;105612;1258;107743;-77
2024/03/02 02:25:46;;;;;;;31.10;15.90;;;;;;;6.55;78.11;98633.05;105344;1254;96687;-77
2024/03/02 02:28:14;;;;;;;31.90;16.10;;;;;;;6.54;78.02;98627.30;105351;1259;96628;-78
2024/03/02 02:30:42;;;;;;;33.10;14.90;;;;;;;6.53;77.96;98619.24;105060;1254;109733;-77
2024/03/02 02:33:10;;;;;;;31.60;14.50;;;;;;;6.50;77.99;98617.85;105207;1259;96590;-79
2024/03/02 02:35:38;;;;;;;30.60;15.70;;;;;;;6.47;78.13;98620.32;105479;1259;106804;-78
2024/03/02 02:38:06;;;;;;;30.90;15.00;;;;;;;6.47;78.03;98628.48;105293;1257;96639;-77
2024/03/02 02:40:34;;;;;;;31.40;16.30;;;;;;;6.45;78.01;98625.21;105453;1266;96598;-78
2024/03/02 02:43:02;;;;;;;35.00;16.20;;;;;;;6.43;77.88;98623.92;105574;1256;109714;-77
2024/03/02 02:45:30;;;;;;;30.80;15.40;;;;;;;6.41;77.90;98624.08;105353;1258;96636;-78
2024/03/02 02:47:58;;;;;;;30.10;16.00;;;;;;;6.38;78.07;98621.05;105537;1264;107326;-76
2024/03/02 02:50:26;;;;;;;30.30;14.30;;;;;;;6.37;78.29;98621.66;105151;1259;97094;-77
2024/03/02 02:52:54;;;;;;;32.30;15.40;;;;;;;6.35;78.09;98617.55;105226;1261;96649;-76
2024/03/02 02:55:22;;;;;;;32.30;16.30;;;;;;;6.32;77.90;98618.48;105121;1259;109862;-77
2024/03/02 02:57:50;;;;;;;29.50;15.20;;;;;;;6.29;78.15;98621.27;105235;1264;96614;-77
2024/03/02 03:00:19;;;;;;;32.40;16.70;;;;;;;6.27;77.96;98622.48;105505;1257;107698;-76
2024/03/02 03:02:49;;;;;;;32.20;15.70;;;;;;;6.27;78.10;98624.61;105180;1259;96603;-78
2024/03/02 03:05:19;;;;;;;33.40;16.50;;;;;;;6.25;78.25;98621.70;105276;1254;96522;-77
2024/03/02 03:07:49;;;;;;;32.10;17.20;;;;;;;6.24;78.07;98622.28;105227;1258;109887;-77
2024/03/02 03:10:18;;;;;;;31.00;16.10;;;;;;;6.22;78.09;98621.02;105440;1265;96619;-76
2024/03/02 03:12:46;;;;;;;28.60;14.20;;;;;;;6.20;78.25;98623.96;105594;1267;106044;-77
2024/03/02 03:15:16;;;;;;;27.90;13.90;;;;;;;6.20;78.10;98629.04;105611;1257;96648;-75
2024/03/02 03:17:46;;;;;;;27.90;14.90;;;;;;;6.20;78.21;98629.26;105208;1259;96604;-77
2024/03/02 03:20:15;;;;;;;32.70;16.80;;;;;;;6.21;77.99;98623.55;105435;1257;110029;-76
2024/03/02 03:22:44;;;;;;;34.50;17.60;;;;;;;6.20;78.19;98622.01;105529;1254;97851;-77
2024/03/02 03:25:12;;;;;;;29.70;16.90;;;;;;;6.20;78.19;98618.12;105364;1259;108182;-77
2024/03/02 03:27:41;;;;;;;34.10;16.70;;;;;;;6.20;78.23;98621.45;105174;1258;97439;-77
2024/03/02 03:30:10;;;;;;;34.70;16.00;;;;;;;6.19;78.13;98620.32;105520;1258;96509;-76
2024/03/02 03:32:38;;;;;;;33.60;15.30;;;;;;;6.17;78.14;98613.92;105469;1258;108987;-77
2024/03/02 03:35:07;;;;;;;29.50;15.40;;;;;;;6.17;78.38;98617.60;105505;1258;97676;-77
2024/03/02 03:37:35;;;;;;;33.90;15.10;;;;;;;6.17;78.41;98615.52;105350;1257;107115;-76
2024/03/02 03:40:09;;;;;;;32.40;15.70;;;;;;;6.17;78.27;98615.17;105406;1266;96716;-77
2024/03/02 03:42:39;;;;;;;31.70;14.90;;;;;;;6.16;78.34;98618.02;105173;1259;96687;-77
2024/03/02 03:45:07;;;;;;;32.50;15.10;;;;;;;6.17;78.20;98623.80;105327;1264;110069;-76
2024/03/02 03:47:35;;;;;;;31.70;15.90;;;;;;;6.18;78.32;98625.30;105195;1266;96555;-76
2024/03/02 03:50:07;;;;;;;33.20;15.80;;;;;;;6.19;78.31;98625.05;105323;1258;105442;-76
2024/03/02 03:52:35;;;;;;;32.20;16.60;;;;;;;6.19;78.30;98626.11;105331;1258;97554;-76
2024/03/02 03:55:05;;;;;;;31.60;16.40;;;;;;;6.19;78.37;98625.61;105366;1260;96688;-76
2024/03/02 03:57:33;;;;;;;35.00;16.20;;;;;;;6.19;78.35;98617.14;105278;1258;109643;-77
2024/03/02 04:00:03;;;;;;;38.00;17.60;;;;;;;6.19;78.15;98610.30;105573;1257;96599;-76
2024/03/02 04:02:31;;;;;;;32.40;16.50;;;;;;;6.18;78.42;98606.31;105346;1259;108147;-76
2024/03/02 04:04:59;;;;;;;31.10;16.30;;;;;;;6.18;78.47;98603.84;105481;1260;96604;-77
2024/03/02 04:07:27;;;;;;;34.60;17.60;;;;;;;6.18;78.38;98601.87;105543;1266;96605;-78
2024/03/02 04:09:54;;;;;;;36.00;17.40;;;;;;;6.17;78.34;98607.55;105770;1256;109706;-76
2024/03/02 04:12:23;;;;;;;31.60;15.30;;;;;;;6.17;78.65;98615.15;105456;1261;96589;-77
2024/03/02 04:14:50;;;;;;;36.60;15.50;;;;;;;6.18;78.42;98616.17;105513;1255;107661;-77
2024/03/02 04:17:18;;;;;;;31.90;15.00;;;;;;;6.20;78.58;98622.02;105609;1258;99227;-77
2024/03/02 04:19:46;;;;;;;32.30;16.50;;;;;;;6.19;78.36;98623.64;105318;1259;96610;-78
2024/03/02 04:22:14;;;;;;;37.00;17.40;;;;;;;6.19;78.31;98627.15;105315;1265;109866;-77
2024/03/02 04:24:52;;;;;;;36.40;17.20;;;;;;;6.19;78.67;98625.40;105269;1256;96583;-77
2024/03/02 04:27:20;;;;;;;34.20;15.90;;;;;;;6.19;78.41;98622.60;105452;1256;107393;-77
2024/03/02 04:29:48;;;;;;;32.80;16.10;;;;;;;6.19;78.66;98619.92;105384;1265;96628;-76
2024/03/02 04:32:16;;;;;;;34.40;17.00;;;;;;;6.20;78.32;98617.25;105263;1255;97960;-76
2024/03/02 04:34:44;;;;;;;32.70;17.00;;;;;;;6.20;78.59;98621.27;105303;1266;109957;-77
2024/03/02 04:37:12;;;;;;;33.60;17.40;;;;;;;6.19;78.37;98619.40;105424;1254;96640;-77
2024/03/02 04:39:40;;;;;;;34.70;16.60;;;;;;;6.20;78.53;98621.45;105591;1257;108018;-76
2024/03/02 04:42:08;;;;;;;36.50;16.70;;;;;;;6.21;78.52;98620.34;105414;1257;98027;-77
2024/03/02 04:44:38;;;;;;;37.20;17.00;;;;;;;6.22;78.55;98621.19;105246;1253;96606;-77
2024/03/02 04:47:05;;;;;;;34.10;16.70;;;;;;;6.22;78.47;98621.17;105065;1266;109922;-76
2024/03/02 04:49:33;;;;;;;35.90;15.90;;;;;;;6.22;78.75;98619.21;105635;1257;96622;-77
2024/03/02 04:52:02;;;;;;;36.70;16.30;;;;;;;6.22;78.59;98620.45;105517;1257;107607;-76
2024/03/02 04:54:30;;;;;;;33.30;15.60;;;;;;;6.21;78.73;98614.52;105148;1266;96603;-78
2024/03/02 04:56:58;;;;;;;36.60;17.30;;;;;;;6.21;78.74;98613.45;105399;1256;96586;-77
2024/03/02 04:59:26;;;;;;;37.30;17.10;;;;;;;6.21;78.47;98616.64;105535;1255;109493;-76
2024/03/02 05:01:54;;;;;;;37.20;17.00;;;;;;;6.22;78.70;98620.85;105511;1257;96613;-76
2024/03/02 05:04:22;;;;;;;34.40;17.00;;;;;;;6.21;78.64;98621.73;105328;1266;107579;-77
2024/03/02 05:06:52;;;;;;;37.90;16.40;;;;;;;6.23;78.71;98625.53;105583;1262;97459;-77
2024/03/02 05:09:21;;;;;;;40.70;17.50;;;;;;;6.23;78.67;98623.56;105608;1257;96575;-78
2024/03/02 05:12:05;;;;;;;35.20;17.00;;;;;;;6.24;78.64;98628.28;105610;1256;110001;-77
2024/03/02 05:14:33;;;;;;;37.60;16.00;;;;;;;6.24;78.82;98629.48;105448;1266;96568;-77
2024/03/02 05:17:01;;;;;;;39.10;17.90;;;;;;;6.26;78.83;98629.38;105300;1266;107570;-77
2024/03/02 05:19:28;;;;;;;34.60;15.60;;;;;;;6.27;78.62;98631.12;105455;1267;96613;-76
2024/03/02 05:21:56;;;;;;;32.40;15.30;;;;;;;6.26;78.84;98631.48;105315;1264;96623;-78
2024/03/02 05:24:27;;;;;;;31.10;15.80;;;;;;;6.27;78.77;98633.91;105552;1257;110564;-78
2024/03/02 05:26:55;;;;;;;37.50;16.90;;;;;;;6.28;78.90;98639.16;105219;1266;96678;-77
2024/03/02 05:29:22;;;;;;;32.70;15.20;;;;;;;6.29;78.81;98639.80;105196;1266;107403;-77
2024/03/02 05:31:50;;;;;;;32.30;16.80;;;;;;;6.31;78.86;98636.71;105280;1265;97934;-77
2024/03/02 05:34:18;;;;;;;38.00;16.90;;;;;;;6.32;79.06;98635.52;105323;1258;96503;-77
2024/03/02 05:36:46;;;;;;;34.20;16.40;;;;;;;6.33;78.86;98640.73;105559;1257;109530;-77
2024/03/02 05:39:14;;;;;;;33.90;16.60;;;;;;;6.34;78.84;98644.37;105490;1257;96513;-77
2024/03/02 05:41:42;;;;;;;37.60;17.50;;;;;;;6.35;78.98;98644.48;108414;1254;106631;-76
2024/03/02 05:44:10;;;;;;;37.00;15.40;;;;;;;6.36;78.93;98649.73;105256;1266;96610;-77
2024/03/02 05:46:38;;;;;;;35.90;15.80;;;;;;;6.38;79.14;98654.89;105149;1260;96606;-78
2024/03/02 05:49:08;;;;;;;34.40;15.10;;;;;;;6.39;78.91;98657.11;105519;1256;109795;-76
2024/03/02 05:51:35;;;;;;;40.50;17.80;;;;;;;6.40;78.82;98655.14;105500;1257;96568;-77
2024/03/02 05:54:03;;;;;;;32.00;16.00;;;;;;;6.39;78.99;98650.22;105695;1254;106151;-77
2024/03/02 05:56:32;;;;;;;38.10;16.60;;;;;;;6.40;78.94;98652.67;105206;1266;96693;-77
2024/03/02 05:59:12;;;;;;;35.60;16.30;;;;;;;6.40;78.95;98652.48;105283;1256;97925;-77
2024/03/02 06:01:46;;;;;;;39.20;16.90;;;;;;;6.40;78.86;98649.65;105415;1266;110025;-77
2024/03/02 06:04:14;;;;;;;34.60;15.40;;;;;;;6.40;79.04;98654.58;105538;1266;96750;-77
2024/03/02 06:06:42;;;;;;;31.10;15.00;;;;;;;6.42;79.02;98658.16;105606;1253;107640;-77
2024/03/02 06:09:14;;;;;;;32.20;15.90;;;;;;;6.43;78.98;98658.13;106164;1257;97544;-77
2024/03/02 06:11:41;;;;;;;31.90;15.90;;;;;;;6.43;79.09;98657.95;105378;1256;96524;-77
2024/03/02 06:14:09;;;;;;;33.50;16.40;;;;;;;6.43;79.13;98655.65;105346;1266;109880;-77
2024/03/02 06:16:37;;;;;;;34.80;15.80;;;;;;;6.45;79.09;98656.26;105336;1256;96588;-77
2024/03/02 06:19:05;;;;;;;36.70;17.10;;;;;;;6.46;79.12;98654.75;105089;1257;107652;-77
2024/03/02 06:21:33;;;;;;;35.80;17.20;;;;;;;6.47;79.11;98659.64;105584;1257;96540;-74
2024/03/02 06:24:01;;;;;;;36.80;16.50;;;;;;;6.47;79.19;98664.38;105298;1254;96714;-77
2024/03/02 06:26:30;;;;;;;36.80;18.30;;;;;;;6.49;78.95;98666.91;105294;1254;108734;-77
2024/03/02 06:28:58;;;;;;;39.70;17.10;;;;;;;6.49;79.03;98669.88;105459;1259;96711;-77
2024/03/02 06:31:25;;;;;;;38.70;16.80;;;;;;;6.50;79.02;98668.40;105339;1266;107233;-76
2024/03/02 06:33:53;;;;;;;37.20;17.10;;;;;;;6.51;79.10;98668.90;105365;1254;97918;-78
2024/03/02 06:36:21;;;;;;;38.10;17.50;;;;;;;6.53;79.26;98669.13;105197;1258;96517;-76
2024/03/02 06:38:49;;;;;;;36.60;16.60;;;;;;;6.53;79.14;98667.48;105178;1257;109846;-77
2024/03/02 06:41:17;;;;;;;37.90;15.90;;;;;;;6.55;79.10;98667.56;105507;1254;97169;-76
2024/03/02 06:43:45;;;;;;;35.00;16.90;;;;;;;6.56;79.10;98668.94;105502;1257;107552;-77
2024/03/02 06:46:14;;;;;;;34.30;16.60;;;;;;;6.57;79.23;98669.05;105181;1270;97497;-77
2024/03/02 06:48:43;;;;;;;34.90;16.80;;;;;;;6.58;79.08;98665.85;105434;1267;97930;-77
2024/03/02 06:51:10;;;;;;;34.20;16.30;;;;;;;6.59;79.08;98665.95;105191;1257;109429;-77
2024/03/02 06:53:38;;;;;;;39.70;18.10;;;;;;;6.60;79.08;98668.89;105162;1266;97944;-77
2024/03/02 06:56:13;;;;;;;37.20;16.20;;;;;;;6.61;79.21;98663.52;105482;1257;107233;-78
2024/03/02 06:58:43;;;;;;;33.50;16.50;;;;;;;6.62;78.88;98665.60;105712;1254;96593;-77
2024/03/02 07:01:11;;;;;;;37.30;17.10;;;;;;;6.62;79.26;98663.46;105732;1254;96751;-70
2024/03/02 07:03:39;;;;;;;30.90;15.50;;;;;;;6.64;79.23;98663.85;105310;1258;108623;-68
2024/03/02 07:06:07;;;;;;;34.20;15.60;;;;;;;6.67;79.22;98665.98;105428;1260;100274;-69
2024/03/02 07:08:35;;;;;;;36.40;16.60;;;;;;;6.69;79.33;98669.90;105294;1253;107597;-68
2024/03/02 07:11:03;;;;;;;34.40;16.70;;;;;;;6.71;79.21;98674.19;105684;1254;96542;-70
2024/03/02 07:13:31;;;;;;;33.40;16.50;;;;;;;6.71;79.13;98668.52;105735;1256;96597;-69
2024/03/02 07:18:41;;;;;;;34.60;16.30;;;;;;;6.75;79.21;98670.05;105248;1258;97910;-70
2024/03/02 07:21:09;;;;;;;37.00;16.90;;;;;;;6.77;79.17;98670.45;105553;1266;107666;-71
2024/03/02 07:23:37;;;;;;;37.70;16.40;;;;;;;6.77;79.32;98675.17;105549;1257;96597;-69
2024/03/02 07:26:06;;;;;;;35.80;17.00;;;;;;;6.79;79.19;98673.48;105785;1257;96560;-71
2024/03/02 07:28:36;;;;;;;37.60;17.00;;;;;;;6.81;79.26;98676.70;105322;1266;108956;-71
2024/03/02 07:31:05;;;;;;;40.90;17.40;;;;;;;6.84;79.40;98677.92;105465;1269;96677;-70
2024/03/02 07:33:33;;;;;;;34.70;16.30;;;;;;;6.86;79.38;98679.23;105542;1268;107063;-70
2024/03/02 07:36:01;;;;;;;35.20;17.70;;;;;;;6.88;79.18;98682.12;105512;1268;97028;-75
2024/03/02 07:38:34;;;;;;;38.00;17.90;;;;;;;6.89;79.42;98679.55;105534;1257;96635;-70
2024/03/02 07:41:04;;;;;;;31.40;15.20;;;;;;;6.92;79.25;98679.55;105385;1256;109983;-70
2024/03/02 07:43:33;;;;;;;37.80;16.70;;;;;;;6.94;79.29;98682.05;105333;1258;96669;-71
2024/03/02 07:46:02;;;;;;;38.40;16.00;;;;;;;6.95;79.54;98680.73;105434;1266;107637;-75
2024/03/02 07:48:31;;;;;;;34.10;16.60;;;;;;;6.97;79.28;98678.87;105460;1266;96634;-78
2024/03/02 07:50:59;;;;;;;29.80;16.60;;;;;;;6.99;79.39;98680.00;105576;1254;96597;-82
2024/03/02 07:53:29;;;;;;;40.30;17.40;;;;;;;7.01;79.39;98681.95;105248;1254;109623;-80
2024/03/02 07:56:02;;;;;;;41.00;17.10;;;;;;;7.02;79.42;98681.91;105355;1266;96589;-68
2024/03/02 07:58:31;;;;;;;39.70;18.50;;;;;;;7.04;79.37;98686.70;105483;1257;107185;-67
2024/03/02 08:01:01;;;;;;;37.30;17.90;;;;;;;7.05;79.38;98690.55;105553;1257;96621;-72
2024/03/02 08:03:29;;;;;;;40.40;17.80;;;;;;;7.06;79.37;98689.76;105409;1255;96955;-70
2024/03/02 08:05:57;;;;;;;35.60;17.20;;;;;;;7.09;79.44;98693.27;105317;1254;110709;-72
2024/03/02 08:08:25;;;;;;;35.60;16.20;;;;;;;7.12;79.49;98691.28;105560;1257;96582;-69
2024/03/02 08:10:53;;;;;;;34.90;16.90;;;;;;;7.16;79.61;98686.64;105830;1253;106817;-68
2024/03/02 08:13:21;;;;;;;40.40;19.60;;;;;;;7.19;79.40;98686.46;105499;1257;96638;-70
2024/03/02 08:15:49;;;;;;;36.30;17.60;;;;;;;7.22;79.57;98693.89;105665;1255;96712;-69
2024/03/02 08:18:17;;;;;;;38.10;17.20;;;;;;;7.23;79.56;98694.46;105434;1257;109273;-68
2024/03/02 08:20:45;;;;;;;36.30;16.70;;;;;;;7.25;79.63;98697.55;105317;1253;96512;-68
2024/03/02 08:23:13;;;;;;;36.40;17.70;;;;;;;7.28;79.44;98705.83;105505;1257;107676;-67
2024/03/02 08:25:41;;;;;;;34.30;17.40;;;;;;;7.29;79.37;98711.01;104867;1254;96721;-69
2024/03/02 08:28:09;;;;;;;39.30;17.60;;;;;;;7.30;79.50;98708.17;105517;1254;96509;-67
2024/03/02 08:30:37;;;;;;;38.10;17.90;;;;;;;7.33;79.55;98710.29;105383;1254;109777;-67
2024/03/02 08:33:05;;;;;;;41.70;18.50;;;;;;;7.34;79.53;98711.26;105217;1253;96592;-68
2024/03/02 08:35:36;;;;;;;34.10;17.00;;;;;;;7.37;79.56;98710.36;105322;1257;110607;-70
2024/03/02 08:38:04;;;;;;;41.30;19.60;;;;;;;7.40;79.52;98709.82;105503;1258;96738;-68
2024/03/02 08:40:32;;;;;;;42.80;17.50;;;;;;;7.42;79.62;98708.27;105173;1259;97456;-67
2024/03/02 08:43:00;;;;;;;35.50;16.90;;;;;;;7.44;79.54;98709.70;105125;1253;110041;-69
2024/03/02 08:45:28;;;;;;;36.00;17.80;;;;;;;7.46;79.71;98702.33;105159;1253;96524;-67
2024/03/02 08:47:56;;;;;;;45.20;19.20;;;;;;;7.48;79.62;98699.06;105599;1254;107773;-68
2024/03/02 08:50:24;;;;;;;39.20;19.10;;;;;;;7.49;79.65;98702.73;105604;1256;96490;-69
2024/03/02 08:52:52;;;;;;;37.10;16.90;;;;;;;7.49;79.55;98702.36;105641;1254;96559;-68
2024/03/02 08:55:19;;;;;;;35.30;17.70;;;;;;;7.50;79.45;98706.88;105413;1256;110574;-68
2024/03/02 08:57:50;;;;;;;38.40;19.80;;;;;;;7.53;79.61;98706.85;105433;1257;96629;-67
2024/03/02 09:00:18;;;;;;;39.30;17.90;;;;;;;7.55;79.65;98708.08;105599;1257;105588;-70
2024/03/02 09:02:47;;;;;;;33.10;17.10;;;;;;;7.58;79.61;98708.45;105494;1257;96614;-69
2024/03/02 09:05:15;;;;;;;35.10;16.70;;;;;;;7.61;79.59;98710.02;105533;1252;96850;-76
2024/03/02 09:07:43;;;;;;;36.50;17.60;;;;;;;7.63;79.55;98711.86;105514;1257;110571;-68
2024/03/02 09:10:11;;;;;;;34.60;16.20;;;;;;;7.66;79.83;98713.40;105505;1252;96797;-70
2024/03/02 09:12:39;;;;;;;35.70;17.80;;;;;;;7.70;79.78;98709.96;105271;1266;107483;-68
2024/03/02 09:15:08;;;;;;;40.20;19.50;;;;;;;7.74;79.61;98714.45;105312;1257;96616;-68
2024/03/02 09:17:36;;;;;;;33.90;17.10;;;;;;;7.77;79.56;98717.98;105413;1254;96565;-67
2024/03/02 09:20:05;;;;;;;35.50;17.40;;;;;;;7.80;79.56;98717.81;105355;1257;109894;-68
2024/03/02 09:22:33;;;;;;;35.50;18.00;;;;;;;7.82;79.62;98710.91;105345;1256;96599;-69
2024/03/02 09:25:01;;;;;;;41.60;18.50;;;;;;;7.84;79.69;98712.73;105387;1257;107704;-70
2024/03/02 09:27:29;;;;;;;35.30;17.90;;;;;;;7.86;79.67;98712.98;105655;1254;96604;-71
2024/03/02 09:29:57;;;;;;;41.40;18.50;;;;;;;7.88;79.64;98716.52;105261;1257;96652;-68
2024/03/02 09:32:24;;;;;;;38.20;17.90;;;;;;;7.90;79.68;98718.30;105669;1254;109633;-71
2024/03/02 09:34:53;;;;;;;40.90;19.20;;;;;;;7.93;79.64;98721.55;104626;1266;96760;-69
2024/03/02 09:37:21;;;;;;;36.90;17.40;;;;;;;7.95;79.62;98722.63;105399;1258;107839;-73
2024/03/02 09:39:49;;;;;;;37.20;16.70;;;;;;;7.99;79.67;98723.22;105436;1259;96963;-70
2024/03/02 09:42:16;;;;;;;30.50;15.90;;;;;;;8.03;79.83;98730.35;105381;1253;96619;-68
2024/03/02 09:44:45;;;;;;;40.10;18.70;;;;;;;8.05;79.75;98725.83;104678;1257;110000;-70
2024/03/02 09:47:13;;;;;;;41.60;18.70;;;;;;;8.05;79.69;98722.45;105521;1258;97957;-67
2024/03/02 09:49:41;;;;;;;40.10;17.30;;;;;;;8.06;79.62;98724.90;105365;1257;107703;-67
2024/03/02 09:52:10;;;;;;;36.00;17.30;;;;;;;8.05;79.57;98730.38;105343;1258;97535;-68
2024/03/02 09:54:38;;;;;;;35.40;18.00;;;;;;;8.07;79.65;98733.84;105360;1253;96974;-69
2024/03/02 09:57:06;;;;;;;37.10;18.00;;;;;;;8.07;79.65;98737.36;105289;1256;109410;-68
2024/03/02 09:59:34;;;;;;;40.80;20.50;;;;;;;8.08;79.69;98737.98;105479;1255;96575;-68
2024/03/02 10:02:03;;;;;;;39.80;19.00;;;;;;;8.10;79.77;98737.71;105430;1257;107840;-69
2024/03/02 10:04:32;;;;;;;37.80;18.40;;;;;;;8.11;79.69;98737.59;105385;1254;98171;-68
2024/03/02 10:07:16;;;;;;;35.10;18.50;;;;;;;8.11;79.73;98737.08;105624;1257;97934;-68
2024/03/02 10:09:46;;;;;;;40.20;18.40;;;;;;;8.09;79.67;98738.45;105424;1256;110692;-69
2024/03/02 10:12:16;;;;;;;36.80;18.30;;;;;;;8.08;79.65;98738.31;105547;1252;97525;-71
2024/03/02 10:14:45;;;;;;;42.30;20.10;;;;;;;8.10;79.71;98733.29;105679;1261;107688;-68
2024/03/02 10:17:15;;;;;;;41.90;19.80;;;;;;;8.10;79.68;98731.48;105607;1254;96584;-68
2024/03/02 10:19:43;;;;;;;38.40;17.80;;;;;;;8.10;79.70;98730.44;105303;1253;96626;-68
2024/03/02 10:22:11;;;;;;;36.70;20.00;;;;;;;8.10;79.73;98734.86;105433;1256;109960;-68
2024/03/02 10:24:44;;;;;;;40.40;18.70;;;;;;;8.11;79.83;98735.14;104833;1257;96520;-66
2024/03/02 10:27:18;;;;;;;37.50;18.40;;;;;;;8.13;79.84;98734.67;104706;1260;107303;-67
2024/03/02 10:29:47;;;;;;;40.20;19.90;;;;;;;8.14;79.75;98729.45;105620;1253;96510;-67
2024/03/02 10:32:16;;;;;;;38.20;18.30;;;;;;;8.17;79.83;98732.45;105361;1257;96711;-67
2024/03/02 10:34:49;;;;;;;42.80;19.10;;;;;;;8.19;79.96;98730.73;105401;1255;109894;-67
2024/03/02 10:37:17;;;;;;;41.40;21.60;;;;;;;8.21;79.99;98725.43;105120;1257;96718;-66
2024/03/02 10:39:47;;;;;;;38.00;19.40;;;;;;;8.24;79.84;98726.16;104998;1259;108329;-67
2024/03/02 10:42:17;;;;;;;43.30;20.50;;;;;;;8.26;80.03;98727.62;104944;1253;96730;-68
2024/03/02 10:44:45;;;;;;;39.30;19.20;;;;;;;8.30;80.01;98727.67;104808;1256;96596;-68
2024/03/02 10:47:15;;;;;;;40.70;19.00;;;;;;;8.34;80.06;98728.05;105507;1253;110516;-70
2024/03/02 10:49:46;;;;;;;35.30;18.40;;;;;;;8.39;80.08;98727.09;105284;1266;97371;-67
2024/03/02 10:52:14;;;;;;;47.30;21.50;;;;;;;8.42;79.98;98723.10;105426;1256;108207;-71
2024/03/02 10:54:42;;;;;;;44.50;21.90;;;;;;;8.46;79.93;98714.92;105362;1256;97947;-66
2024/03/02 10:57:13;;;;;;;33.70;18.90;;;;;;;8.49;80.04;98709.77;104996;1257;96585;-72
2024/03/02 11:00:02;;;;;;;45.30;20.90;;;;;;;8.54;80.04;98708.40;105619;1253;109589;-67
2024/03/02 11:03:47;;;;;;;43.10;23.00;;;;;;;8.63;80.14;98703.67;102462;1285;638419;-73
2024/03/02 11:06:16;;;;;;;40.20;21.10;;;;;;;8.68;80.14;98710.09;105003;1266;94367;-70
2024/03/02 11:08:47;;;;;;;39.30;18.50;;;;;;;8.71;80.10;98708.96;108181;1260;92170;-67
2024/03/02 11:11:21;;;;;;;38.10;21.10;;;;;;;8.74;80.06;98705.18;108223;1259;107264;-68
2024/03/02 11:13:50;;;;;;;37.20;18.50;;;;;;;8.77;80.05;98705.72;105171;1264;95707;-68
2024/03/02 11:16:41;;;;;;;40.30;21.00;;;;;;;8.79;79.91;98702.74;104713;1264;557816;-67
2024/03/02 11:19:13;;;;;;;39.60;20.60;;;;;;;8.78;79.92;98700.52;107787;1257;94562;-67
2024/03/02 11:21:45;;;;;;;40.30;20.80;;;;;;;8.78;79.90;98701.17;105369;1257;95125;-68
2024/03/02 11:24:27;;;;;;;38.20;20.30;;;;;;;8.79;79.88;98695.85;105398;1259;106919;-68
2024/03/02 11:26:56;;;;;;;38.60;20.00;;;;;;;8.79;79.88;98693.54;105304;1261;95439;-67